createdAt,value
2022-11-07T00:00:17.075Z,75.98
2022-11-07T00:02:44.953Z,75.62
2022-11-07T00:05:14.216Z,76.05
2022-11-07T00:07:42.035Z,75.71
2022-11-07T00:10:10.572Z,75.83
2022-11-07T00:12:38.378Z,76.00
2022-11-07T00:15:07.431Z,76.00
2022-11-07T00:17:35.257Z,75.50
2022-11-07T00:20:03.158Z,75.25
2022-11-07T00:22:32.326Z,75.69
2022-11-07T00:25:00.266Z,76.13
2022-11-07T00:27:28.283Z,76.96
2022-11-07T00:29:56.212Z,76.29
2022-11-07T00:32:24.136Z,75.89
2022-11-07T00:34:51.939Z,76.26
2022-11-07T00:37:19.957Z,75.74
2022-11-07T00:39:49.177Z,75.20
2022-11-07T00:42:17.594Z,75.67
2022-11-07T00:44:45.490Z,76.18
2022-11-07T00:47:13.347Z,76.34
2022-11-07T00:49:41.170Z,76.52
2022-11-07T00:52:09.005Z,75.79
2022-11-07T00:54:36.834Z,76.13
2022-11-07T00:57:06.177Z,76.04
2022-11-07T00:59:34.036Z,77.00
2022-11-07T01:02:01.884Z,76.58
2022-11-07T01:04:47.353Z,76.44
2022-11-07T01:07:15.138Z,77.03
2022-11-07T01:09:42.937Z,76.56
2022-11-07T01:12:12.118Z,76.60
2022-11-07T01:14:40.056Z,76.94
2022-11-07T01:17:07.825Z,76.77
2022-11-07T01:19:35.729Z,77.41
2022-11-07T01:22:03.539Z,77.84
2022-11-07T01:24:32.333Z,77.88
2022-11-07T01:27:00.235Z,77.21
2022-11-07T01:29:29.412Z,76.90
2022-11-07T01:31:57.258Z,77.76
2022-11-07T01:34:25.710Z,77.50
2022-11-07T01:36:53.759Z,78.16
2022-11-07T01:39:21.704Z,77.61
2022-11-07T01:41:49.537Z,76.86
2022-11-07T01:44:51.323Z,76.98
2022-11-07T01:47:19.574Z,77.73
2022-11-07T01:49:47.507Z,77.30
2022-11-07T01:52:20.723Z,76.74
2022-11-07T01:54:54.779Z,77.60
2022-11-07T01:57:27.164Z,76.50
2022-11-07T01:59:59.931Z,77.20
2022-11-07T02:02:29.272Z,76.37
2022-11-07T02:04:59.648Z,77.21
2022-11-07T02:07:27.446Z,77.58
2022-11-07T02:09:55.992Z,76.59
2022-11-07T02:12:26.022Z,77.14
2022-11-07T02:14:56.074Z,77.15
2022-11-07T02:17:23.973Z,77.22
2022-11-07T02:19:56.485Z,77.12
2022-11-07T02:22:35.203Z,77.85
2022-11-07T02:25:07.807Z,77.36
2022-11-07T02:27:37.344Z,76.43
2022-11-07T02:30:08.449Z,77.17
2022-11-07T02:32:38.174Z,76.96
2022-11-07T02:35:08.463Z,77.79
2022-11-07T02:37:39.639Z,77.24
2022-11-07T02:40:11.861Z,78.28
2022-11-07T02:42:46.597Z,78.25
2022-11-07T02:45:17.457Z,79.68
2022-11-07T02:47:45.696Z,80.51
2022-11-07T02:50:15.557Z,79.52
2022-11-07T02:52:43.601Z,78.96
2022-11-07T02:55:14.665Z,80.79
2022-11-07T02:57:43.127Z,80.90
2022-11-07T03:00:14.166Z,80.69
2022-11-07T03:02:47.675Z,81.70
2022-11-07T03:05:17.288Z,82.39
2022-11-07T03:07:47.375Z,83.63
2022-11-07T03:10:17.815Z,83.16
2022-11-07T03:12:46.206Z,84.03
2022-11-07T03:15:14.303Z,83.63
2022-11-07T03:17:42.745Z,83.85
2022-11-07T03:20:12.299Z,84.67
2022-11-07T03:22:40.463Z,84.83
2022-11-07T03:25:09.443Z,85.17
2022-11-07T03:27:47.446Z,84.27
2022-11-07T03:30:15.833Z,84.06
2022-11-07T03:32:44.053Z,84.67
2022-11-07T03:35:12.056Z,84.90
2022-11-07T03:37:41.100Z,84.97
2022-11-07T03:40:10.042Z,84.05
2022-11-07T03:42:43.274Z,83.74
2022-11-07T03:45:12.276Z,85.06
2022-11-07T03:47:42.242Z,86.07
2022-11-07T03:50:12.395Z,85.96
2022-11-07T03:52:40.261Z,86.06
2022-11-07T03:55:08.930Z,85.39
2022-11-07T03:57:36.809Z,85.16
2022-11-07T04:00:07.777Z,85.67
2022-11-07T04:02:35.873Z,85.15
2022-11-07T04:05:04.591Z,85.49
2022-11-07T04:07:32.517Z,85.41
2022-11-07T04:10:00.337Z,85.26
2022-11-07T04:12:45.626Z,85.69
2022-11-07T04:15:32.498Z,85.19
2022-11-07T04:18:01.082Z,85.07
2022-11-07T04:20:29.477Z,85.15
2022-11-07T04:22:57.693Z,84.64
2022-11-07T04:25:39.368Z,84.26
2022-11-07T04:28:07.225Z,84.45
2022-11-07T04:30:36.463Z,85.27
2022-11-07T04:33:04.292Z,83.82
2022-11-07T04:35:33.436Z,83.86
2022-11-07T04:38:02.125Z,84.40
2022-11-07T04:40:30.627Z,84.04
2022-11-07T04:42:58.799Z,82.96
2022-11-07T04:45:26.676Z,82.78
2022-11-07T04:47:56.029Z,82.79
2022-11-07T04:50:24.056Z,82.04
2022-11-07T04:52:51.900Z,81.70
2022-11-07T04:55:22.310Z,81.43
2022-11-07T04:57:52.782Z,82.59
2022-11-07T05:00:21.604Z,80.63
2022-11-07T05:02:50.628Z,81.07
2022-11-07T05:05:20.461Z,80.17
2022-11-07T05:07:48.583Z,80.61
2022-11-07T05:10:20.483Z,80.95
2022-11-07T05:12:48.429Z,81.16
2022-11-07T05:15:17.017Z,80.30
2022-11-07T05:17:45.341Z,81.45
2022-11-07T05:20:28.719Z,80.88
2022-11-07T05:23:17.743Z,80.19
2022-11-07T05:25:48.555Z,80.14
2022-11-07T05:28:21.919Z,80.84
2022-11-07T05:30:54.138Z,81.05
2022-11-07T05:33:21.996Z,80.60
2022-11-07T05:35:51.213Z,80.18
2022-11-07T05:38:19.122Z,80.00
2022-11-07T05:40:46.921Z,79.57
2022-11-07T05:43:16.913Z,79.44
2022-11-07T05:45:45.018Z,79.38
2022-11-07T05:48:14.282Z,79.19
2022-11-07T05:50:42.403Z,79.02
2022-11-07T05:53:11.658Z,79.16
2022-11-07T05:55:40.838Z,78.12
2022-11-07T05:58:12.567Z,78.76
2022-11-07T06:00:40.694Z,78.97
2022-11-07T06:03:09.600Z,79.27
2022-11-07T06:05:38.936Z,78.32
2022-11-07T06:08:07.130Z,78.83
2022-11-07T06:10:37.532Z,78.55
2022-11-07T06:13:07.650Z,78.52
2022-11-07T06:15:37.200Z,77.97
2022-11-07T06:18:10.191Z,78.91
2022-11-07T06:20:38.079Z,78.75
2022-11-07T06:23:07.336Z,78.52
2022-11-07T06:25:37.674Z,78.13
2022-11-07T06:28:07.590Z,78.58
2022-11-07T06:30:36.443Z,78.84
2022-11-07T06:33:06.034Z,78.86
2022-11-07T06:35:34.048Z,78.90
2022-11-07T06:38:03.515Z,78.38
2022-11-07T06:40:32.316Z,78.46
2022-11-07T06:43:08.739Z,77.71
2022-11-07T06:45:37.369Z,78.31
2022-11-07T06:48:06.658Z,77.86
2022-11-07T06:50:35.137Z,78.47
2022-11-07T06:53:04.465Z,78.34
2022-11-07T06:55:33.709Z,78.61
2022-11-07T06:58:02.146Z,78.20
2022-11-07T07:00:32.629Z,77.68
2022-11-07T07:03:00.680Z,77.49
2022-11-07T07:05:28.806Z,77.36
2022-11-07T07:07:56.949Z,77.45
2022-11-07T07:10:25.585Z,77.28
2022-11-07T07:12:53.644Z,76.51
2022-11-07T07:15:22.142Z,76.88
2022-11-07T07:17:51.549Z,77.46
2022-11-07T07:20:20.030Z,77.20
2022-11-07T07:22:51.647Z,76.72
2022-11-07T07:25:23.479Z,77.18
2022-11-07T07:27:51.321Z,76.68
2022-11-07T07:30:19.206Z,76.84
2022-11-07T07:32:47.006Z,76.97
2022-11-07T07:35:19.410Z,76.36
2022-11-07T07:37:50.970Z,76.81
2022-11-07T07:40:19.353Z,76.50
2022-11-07T07:42:47.749Z,76.22
2022-11-07T07:45:17.475Z,75.68
2022-11-07T07:47:45.571Z,75.62
2022-11-07T07:50:14.082Z,75.86
2022-11-07T07:52:43.760Z,75.40
2022-11-07T07:55:11.703Z,75.12
2022-11-07T07:57:41.175Z,75.20
2022-11-07T08:00:10.749Z,74.82
2022-11-07T08:02:38.759Z,74.81
2022-11-07T08:05:07.736Z,74.13
2022-11-07T08:07:48.224Z,74.33
2022-11-07T08:10:40.171Z,73.42
2022-11-07T08:13:04.621Z,73.52
2022-11-07T08:15:32.634Z,73.90
2022-11-07T08:18:04.225Z,72.99
2022-11-07T08:20:32.772Z,72.22
2022-11-07T08:23:04.218Z,73.09
2022-11-07T08:25:32.986Z,73.26
2022-11-07T08:28:02.708Z,73.46
2022-11-07T08:30:31.996Z,73.51
2022-11-07T08:33:01.917Z,73.79
2022-11-07T08:35:31.432Z,73.56
2022-11-07T08:38:02.154Z,74.25
2022-11-07T08:40:32.133Z,73.82
2022-11-07T08:43:01.838Z,73.36
2022-11-07T08:45:33.461Z,72.72
2022-11-07T08:48:01.619Z,73.11
2022-11-07T08:50:29.454Z,72.29
2022-11-07T08:53:02.702Z,72.17
2022-11-07T08:55:32.830Z,70.64
2022-11-07T08:58:01.007Z,71.93
2022-11-07T09:00:29.263Z,71.65
2022-11-07T09:03:30.756Z,71.86
2022-11-07T09:05:45.049Z,71.47
2022-11-07T09:08:12.951Z,71.43
2022-11-07T09:10:42.100Z,71.16
2022-11-07T09:13:09.975Z,71.22
2022-11-07T09:15:37.783Z,71.15
2022-11-07T09:18:06.746Z,71.63
2022-11-07T09:20:35.392Z,71.65
2022-11-07T09:23:03.407Z,70.88
2022-11-07T09:25:31.176Z,71.47
2022-11-07T09:28:04.246Z,71.46
2022-11-07T09:30:32.250Z,70.79
2022-11-07T09:33:00.504Z,71.06
2022-11-07T09:35:28.830Z,70.12
2022-11-07T09:37:56.582Z,69.79
2022-11-07T09:40:38.595Z,69.40
2022-11-07T09:43:26.759Z,69.84
2022-11-07T09:46:04.513Z,70.64
2022-11-07T09:48:38.458Z,70.79
2022-11-07T09:51:07.094Z,70.33
2022-11-07T09:53:40.874Z,70.94
2022-11-07T09:56:13.338Z,69.73
2022-11-07T09:58:45.555Z,69.58
2022-11-07T10:01:16.385Z,70.13
2022-11-07T10:04:17.702Z,69.59
2022-11-07T10:06:36.958Z,69.88
2022-11-07T10:09:16.675Z,68.66
2022-11-07T10:11:53.574Z,68.12
2022-11-07T10:14:35.959Z,69.60
2022-11-07T10:17:18.306Z,69.46
2022-11-07T10:20:02.355Z,69.17
2022-11-07T10:22:44.519Z,70.24
2022-11-07T10:25:21.192Z,69.29
2022-11-07T10:27:55.115Z,70.21
2022-11-07T10:30:24.422Z,70.57
2022-11-07T10:33:01.822Z,70.25
2022-11-07T10:35:32.367Z,69.98
2022-11-07T10:38:01.828Z,70.21
2022-11-07T10:40:38.399Z,70.70
2022-11-07T10:43:14.338Z,69.27
2022-11-07T10:45:43.988Z,69.03
2022-11-07T10:48:15.275Z,69.44
2022-11-07T10:50:52.669Z,69.31
2022-11-07T10:53:22.551Z,69.42
2022-11-07T10:55:52.166Z,70.02
2022-11-07T10:58:22.378Z,70.08
2022-11-07T11:01:04.307Z,69.30
2022-11-07T11:03:44.308Z,68.91
2022-11-07T11:06:22.009Z,69.25
2022-11-07T11:08:52.109Z,68.42
2022-11-07T11:11:29.726Z,67.95
2022-11-07T11:14:06.633Z,68.27
2022-11-07T11:16:39.936Z,68.41
2022-11-07T11:19:19.987Z,67.30
2022-11-07T11:21:50.548Z,67.64
2022-11-07T11:24:27.515Z,67.55
2022-11-07T11:26:58.465Z,67.42
2022-11-07T11:29:39.286Z,67.79
2022-11-07T11:32:17.813Z,67.85
2022-11-07T11:34:54.701Z,66.52
2022-11-07T11:37:24.372Z,66.12
2022-11-07T11:40:05.449Z,66.48
2022-11-07T11:42:41.618Z,66.49
2022-11-07T11:45:17.543Z,64.99
2022-11-07T11:47:55.707Z,63.96
2022-11-07T11:50:30.614Z,64.54
2022-11-07T11:53:00.831Z,65.35
2022-11-07T11:55:39.706Z,64.05
2022-11-07T11:58:20.105Z,64.29
2022-11-07T12:00:59.319Z,65.26
2022-11-07T12:03:48.550Z,64.92
2022-11-07T12:06:17.304Z,65.55
2022-11-07T12:09:37.299Z,65.99
2022-11-07T12:12:28.659Z,66.61
2022-11-07T12:15:21.885Z,66.39
2022-11-07T12:17:57.185Z,66.41
2022-11-07T12:20:31.431Z,66.03
2022-11-07T12:23:17.472Z,65.55
2022-11-07T12:25:54.360Z,67.37
2022-11-07T12:28:37.854Z,68.30
2022-11-07T12:31:20.312Z,68.50
2022-11-07T12:33:54.903Z,69.12
2022-11-07T12:36:39.609Z,68.84
2022-11-07T12:39:30.279Z,68.87
2022-11-07T12:42:06.412Z,68.89
2022-11-07T12:44:56.657Z,68.68
2022-11-07T12:47:41.222Z,68.89
2022-11-07T12:50:20.710Z,68.36
2022-11-07T12:53:03.369Z,69.31
2022-11-07T12:55:37.972Z,68.18
2022-11-07T12:58:13.809Z,67.73
2022-11-07T13:00:42.420Z,67.50
2022-11-07T13:03:26.722Z,68.49
2022-11-07T13:06:05.043Z,68.18
2022-11-07T13:08:42.364Z,68.98
2022-11-07T13:11:18.815Z,68.90
2022-11-07T13:14:00.257Z,67.45
2022-11-07T13:16:30.211Z,68.44
2022-11-07T13:19:09.820Z,68.44
2022-11-07T13:21:42.279Z,68.65
2022-11-07T13:24:21.505Z,68.23
2022-11-07T13:26:49.505Z,68.95
2022-11-07T13:29:27.335Z,69.06
2022-11-07T13:32:07.791Z,67.54
2022-11-07T13:34:46.323Z,69.11
2022-11-07T13:37:20.518Z,69.01
2022-11-07T13:39:53.837Z,68.74
2022-11-07T13:42:25.080Z,68.65
2022-11-07T13:44:56.626Z,68.97
2022-11-07T13:47:31.584Z,69.88
2022-11-07T13:50:05.284Z,69.30
2022-11-07T13:52:42.143Z,68.73
2022-11-07T13:55:17.362Z,68.85
2022-11-07T13:57:49.210Z,68.62
2022-11-07T14:00:21.144Z,68.47
2022-11-07T14:02:54.784Z,67.85
2022-11-07T14:05:24.765Z,67.81
2022-11-07T14:07:57.880Z,68.51
2022-11-07T14:10:32.984Z,68.38
2022-11-07T14:13:07.280Z,67.95
2022-11-07T14:15:36.751Z,68.67
2022-11-07T14:18:05.513Z,67.56
2022-11-07T14:20:33.602Z,67.77
2022-11-07T14:23:02.310Z,68.30
2022-11-07T14:25:34.261Z,68.44
2022-11-07T14:28:02.470Z,67.86
2022-11-07T14:30:32.016Z,68.29
2022-11-07T14:33:01.466Z,68.72
2022-11-07T14:35:31.962Z,68.95
2022-11-07T14:38:01.085Z,68.77
2022-11-07T14:40:29.966Z,69.06
2022-11-07T14:43:01.666Z,68.98
2022-11-07T14:45:56.948Z,68.52
2022-11-07T14:48:20.383Z,69.48
2022-11-07T14:50:49.336Z,68.46
2022-11-07T14:53:22.284Z,68.92
2022-11-07T14:55:53.555Z,69.12
2022-11-07T14:58:25.979Z,69.50
2022-11-07T15:00:56.052Z,70.00
2022-11-07T15:03:31.363Z,69.59
2022-11-07T15:06:00.008Z,69.86
2022-11-07T15:08:30.111Z,69.62
2022-11-07T15:11:04.096Z,69.73
2022-11-07T15:13:34.357Z,70.00
2022-11-07T15:16:05.372Z,70.35
2022-11-07T15:18:37.814Z,70.74
2022-11-07T15:21:06.750Z,70.58
2022-11-07T15:23:36.204Z,70.45
2022-11-07T15:26:12.653Z,70.87
2022-11-07T15:28:51.025Z,71.20
2022-11-07T15:31:22.388Z,71.35
2022-11-07T15:33:51.298Z,71.51
2022-11-07T15:36:19.627Z,71.42
2022-11-07T15:38:50.249Z,71.91
2022-11-07T15:41:18.838Z,72.68
2022-11-07T15:43:48.244Z,72.81
2022-11-07T15:46:27.343Z,72.87
2022-11-07T15:48:55.342Z,72.90
2022-11-07T15:51:23.443Z,73.37
2022-11-07T15:53:51.413Z,74.14
2022-11-07T15:56:22.866Z,73.81
2022-11-07T15:58:52.680Z,73.12
2022-11-07T16:01:20.730Z,74.06
2022-11-07T16:03:48.711Z,74.06
2022-11-07T16:06:24.767Z,74.04
2022-11-07T16:08:52.793Z,73.40
2022-11-07T16:11:20.791Z,73.07
2022-11-07T16:13:50.734Z,73.67
2022-11-07T16:16:23.479Z,73.86
2022-11-07T16:18:53.336Z,73.39
2022-11-07T16:21:21.938Z,73.74
2022-11-07T16:23:49.887Z,72.98
2022-11-07T16:26:27.206Z,73.30
2022-11-07T16:28:55.153Z,73.23
2022-11-07T16:31:24.417Z,73.74
2022-11-07T16:33:53.312Z,73.49
2022-11-07T16:36:24.349Z,73.46
2022-11-07T16:38:52.859Z,73.97
2022-11-07T16:41:20.862Z,73.50
2022-11-07T16:43:49.280Z,73.51
2022-11-07T16:46:19.417Z,73.16
2022-11-07T16:48:51.785Z,73.31
2022-11-07T16:51:22.049Z,73.04
2022-11-07T16:53:50.201Z,73.41
2022-11-07T16:56:26.214Z,73.45
2022-11-07T16:58:55.274Z,73.57
2022-11-07T17:01:24.308Z,74.26
2022-11-07T17:03:53.755Z,74.70
2022-11-07T17:06:26.451Z,74.00
2022-11-07T17:08:56.995Z,74.67
2022-11-07T17:11:28.158Z,74.80
2022-11-07T17:13:56.071Z,74.75
2022-11-07T17:16:26.053Z,75.15
2022-11-07T17:18:55.384Z,75.56
2022-11-07T17:21:25.859Z,75.25
2022-11-07T17:23:55.011Z,74.85
2022-11-07T17:26:25.586Z,74.99
2022-11-07T17:28:53.623Z,74.77
2022-11-07T17:31:21.576Z,74.63
2022-11-07T17:33:49.622Z,75.07
2022-11-07T17:36:35.325Z,75.51
2022-11-07T17:39:07.961Z,75.22
2022-11-07T17:41:35.874Z,75.65
2022-11-07T17:44:04.119Z,75.38
2022-11-07T17:46:34.371Z,75.49
2022-11-07T17:49:04.358Z,74.84
2022-11-07T17:51:33.992Z,75.32
2022-11-07T17:54:01.891Z,74.93
2022-11-07T17:56:31.539Z,75.12
2022-11-07T17:59:01.367Z,74.88
2022-11-07T18:01:36.049Z,74.16
2022-11-07T18:04:05.060Z,75.36
2022-11-07T18:06:37.158Z,75.41
2022-11-07T18:09:06.393Z,75.16
2022-11-07T18:11:35.071Z,74.96
2022-11-07T18:14:03.583Z,75.15
2022-11-07T18:16:33.804Z,75.06
2022-11-07T18:19:02.342Z,75.06
2022-11-07T18:21:30.328Z,75.33
2022-11-07T18:23:59.971Z,75.50
2022-11-07T18:26:30.905Z,76.26
2022-11-07T18:29:02.596Z,75.84
2022-11-07T18:31:30.621Z,76.46
2022-11-07T18:33:59.610Z,76.73
2022-11-07T18:36:30.565Z,77.12
2022-11-07T18:39:03.782Z,77.39
2022-11-07T18:41:31.832Z,77.29
2022-11-07T18:44:04.533Z,77.63
2022-11-07T18:46:33.769Z,78.27
2022-11-07T18:49:01.701Z,78.51
2022-11-07T18:51:29.528Z,78.42
2022-11-07T18:53:57.498Z,78.97
2022-11-07T18:56:27.290Z,78.92
2022-11-07T18:58:56.095Z,78.99
2022-11-07T19:01:28.081Z,78.93
2022-11-07T19:03:57.585Z,79.10
2022-11-07T19:06:27.218Z,79.04
2022-11-07T19:08:55.161Z,79.20
2022-11-07T19:11:25.903Z,79.34
2022-11-07T19:13:56.234Z,79.00
2022-11-07T19:16:24.921Z,79.05
2022-11-07T19:18:53.176Z,79.62
2022-11-07T19:21:23.460Z,79.82
2022-11-07T19:23:51.890Z,79.69
2022-11-07T19:26:20.050Z,79.85
2022-11-07T19:28:48.321Z,80.24
2022-11-07T19:31:17.733Z,80.71
2022-11-07T19:33:45.934Z,80.99
2022-11-07T19:36:15.506Z,80.58
2022-11-07T19:38:44.004Z,80.56
2022-11-07T19:41:12.777Z,80.42
2022-11-07T19:43:48.326Z,80.47
2022-11-07T19:46:20.139Z,80.34
2022-11-07T19:48:48.791Z,80.54
2022-11-07T19:51:21.578Z,80.82
2022-11-07T19:53:54.486Z,81.07
2022-11-07T19:56:23.391Z,81.13
2022-11-07T19:58:51.230Z,80.80
2022-11-07T20:01:23.377Z,80.83
2022-11-07T20:03:53.093Z,81.44
2022-11-07T20:06:23.893Z,81.00
2022-11-07T20:08:52.279Z,81.17
2022-11-07T20:11:22.968Z,81.67
2022-11-07T20:13:52.556Z,81.65
2022-11-07T20:16:22.357Z,81.73
2022-11-07T20:18:50.597Z,81.38
2022-11-07T20:21:21.356Z,81.71
2022-11-07T20:23:50.486Z,81.56
2022-11-07T20:26:20.434Z,82.15
2022-11-07T20:28:50.260Z,82.26
2022-11-07T20:31:22.451Z,83.09
2022-11-07T20:33:51.000Z,83.05
2022-11-07T20:36:19.789Z,82.81
2022-11-07T20:38:47.983Z,83.24
2022-11-07T20:41:15.956Z,83.17
2022-11-07T20:43:44.307Z,83.62
2022-11-07T20:46:14.566Z,83.54
2022-11-07T20:48:43.944Z,83.38
2022-11-07T20:51:14.193Z,83.10
2022-11-07T20:53:48.389Z,83.93
2022-11-07T20:56:17.934Z,84.72
2022-11-07T20:58:46.364Z,85.68
2022-11-07T21:01:16.137Z,86.66
2022-11-07T21:03:47.314Z,87.07
2022-11-07T21:06:15.172Z,87.05
2022-11-07T21:08:44.664Z,87.13
2022-11-07T21:11:13.534Z,86.95
2022-11-07T21:13:42.015Z,87.16
2022-11-07T21:16:11.170Z,88.19
2022-11-07T21:18:39.558Z,88.45
2022-11-07T21:21:11.187Z,88.38
2022-11-07T21:23:42.309Z,88.71
2022-11-07T21:26:13.957Z,87.92
2022-11-07T21:28:42.192Z,90.40
2022-11-07T21:31:13.191Z,89.37
2022-11-07T21:33:42.301Z,87.94
2022-11-07T21:36:14.205Z,87.94
2022-11-07T21:38:42.727Z,88.31
2022-11-07T21:41:11.817Z,88.71
2022-11-07T21:43:39.943Z,88.59
2022-11-07T21:46:10.121Z,88.31
2022-11-07T21:48:38.694Z,88.92
2022-11-07T21:51:08.135Z,88.79
2022-11-07T21:53:38.260Z,88.79
2022-11-07T21:56:06.782Z,88.86
2022-11-07T21:58:34.887Z,89.12
2022-11-07T22:01:03.836Z,89.13
2022-11-07T22:04:03.760Z,88.46
2022-11-07T22:06:21.328Z,88.94
2022-11-07T22:08:52.466Z,88.73
2022-11-07T22:11:20.769Z,88.14
2022-11-07T22:13:48.564Z,89.04
2022-11-07T22:16:18.282Z,89.72
2022-11-07T22:18:46.858Z,89.57
2022-11-07T22:21:16.350Z,89.32
2022-11-07T22:23:44.487Z,89.22
2022-11-07T22:26:15.812Z,89.74
2022-11-07T22:28:46.295Z,89.76
2022-11-07T22:31:17.231Z,89.18
2022-11-07T22:33:45.423Z,89.00
2022-11-07T22:36:13.842Z,89.60
2022-11-07T22:38:41.774Z,89.60
2022-11-07T22:41:12.071Z,89.46
2022-11-07T22:43:41.299Z,89.31
2022-11-07T22:46:11.819Z,89.25
2022-11-07T22:48:40.099Z,89.17
2022-11-07T22:51:10.671Z,89.43
2022-11-07T22:53:39.357Z,89.88
2022-11-07T22:56:11.227Z,89.76
2022-11-07T22:58:41.623Z,89.01
2022-11-07T23:01:16.622Z,89.43
2022-11-07T23:03:45.065Z,89.84
2022-11-07T23:06:13.220Z,89.80
2022-11-07T23:08:41.088Z,89.09
2022-11-07T23:14:04.870Z,89.12
2022-11-07T23:16:34.460Z,89.28
2022-11-07T23:19:04.798Z,89.06
2022-11-07T23:21:33.056Z,89.44
2022-11-07T23:24:01.957Z,89.65
2022-11-07T23:26:34.088Z,89.23
2022-11-07T23:29:10.530Z,89.05
2022-11-07T23:31:39.759Z,89.38
2022-11-07T23:34:08.088Z,89.16
2022-11-07T23:36:36.445Z,89.13
2022-11-07T23:39:06.329Z,89.39
2022-11-07T23:41:35.101Z,89.04
2022-11-07T23:44:04.348Z,89.28
2022-11-07T23:46:49.580Z,88.53
2022-11-07T23:49:49.463Z,88.50
2022-11-07T23:52:17.768Z,88.63
2022-11-07T23:55:03.411Z,88.73
2022-11-07T23:57:34.515Z,88.83
